createdAt,value
2017-11-08T00:01:52.607Z,38.53
2017-11-08T00:04:20.154Z,33.33
2017-11-08T00:06:47.650Z,39.47
2017-11-08T00:09:15.186Z,43.53
2017-11-08T00:11:42.691Z,42.43
2017-11-08T00:14:10.230Z,41.93
2017-11-08T00:16:37.737Z,38.53
2017-11-08T00:19:05.274Z,50.20
2017-11-08T00:24:33.961Z,37.60
2017-11-08T00:27:01.463Z,36.90
2017-11-08T00:29:28.990Z,43.17
2017-11-08T00:31:56.486Z,39.40
2017-11-08T00:34:24.015Z,42.80
2017-11-08T00:36:51.605Z,40.20
2017-11-08T00:39:19.151Z,42.07
2017-11-08T00:41:46.647Z,38.63
2017-11-08T00:44:14.146Z,41.10
2017-11-08T00:46:42.450Z,45.37
2017-11-08T00:49:10.710Z,34.63
2017-11-08T00:51:38.245Z,46.23
2017-11-08T00:54:05.747Z,42.17
2017-11-08T00:56:33.274Z,36.00
2017-11-08T00:59:00.770Z,40.37
2017-11-08T01:01:28.303Z,41.80
2017-11-08T01:03:56.570Z,43.47
2017-11-08T01:06:24.114Z,42.07
2017-11-08T01:08:51.614Z,41.00
2017-11-08T01:11:19.110Z,46.70
2017-11-08T01:13:46.651Z,42.80
2017-11-08T01:16:14.154Z,38.10
2017-11-08T01:18:41.694Z,37.53
2017-11-08T01:21:09.194Z,44.23
2017-11-08T01:23:37.490Z,39.90
2017-11-08T01:26:05.754Z,38.63
2017-11-08T01:28:33.255Z,44.37
2017-11-08T01:31:00.787Z,40.23
2017-11-08T01:33:28.287Z,48.30
2017-11-08T01:35:55.814Z,42.60
2017-11-08T01:38:26.319Z,56.40
2017-11-08T01:40:53.858Z,44.03
2017-11-08T01:43:21.362Z,43.70
2017-11-08T01:45:49.691Z,44.93
2017-11-08T01:48:17.195Z,47.37
2017-11-08T01:50:51.308Z,45.53
2017-11-08T01:53:18.807Z,50.70
2017-11-08T01:55:47.215Z,44.87
2017-11-08T01:58:14.720Z,44.50
2017-11-08T02:00:42.277Z,71.27
2017-11-08T02:03:09.779Z,68.37
2017-11-08T02:05:37.275Z,62.93
2017-11-08T02:08:04.813Z,54.37
2017-11-08T02:10:33.079Z,54.57
2017-11-08T02:13:00.611Z,48.97
2017-11-08T02:15:28.871Z,55.40
2017-11-08T02:17:58.234Z,41.63
2017-11-08T02:20:25.726Z,42.17
2017-11-08T02:22:53.286Z,43.40
2017-11-08T02:25:20.787Z,37.97
2017-11-08T02:27:48.346Z,50.13
2017-11-08T02:30:15.842Z,41.47
2017-11-08T02:32:43.340Z,40.87
2017-11-08T02:35:11.642Z,46.00
2017-11-08T02:37:41.802Z,44.90
2017-11-08T02:40:09.343Z,40.80
2017-11-08T02:42:37.611Z,36.43
2017-11-08T02:45:08.043Z,42.53
2017-11-08T02:47:35.550Z,42.23
2017-11-08T02:50:03.099Z,44.07
2017-11-08T02:52:30.594Z,41.20
2017-11-08T02:55:02.897Z,48.13
2017-11-08T02:57:30.395Z,37.37
2017-11-08T02:59:57.942Z,45.87
2017-11-08T03:05:22.469Z,46.40
2017-11-08T03:07:49.966Z,49.13
2017-11-08T03:10:17.519Z,45.13
2017-11-08T03:12:45.018Z,46.37
2017-11-08T03:15:12.515Z,50.87
2017-11-08T03:17:40.051Z,42.67
2017-11-08T03:20:07.564Z,41.60
2017-11-08T03:22:35.091Z,44.37
2017-11-08T03:25:02.586Z,53.23
2017-11-08T03:27:30.110Z,45.00
2017-11-08T03:29:57.598Z,48.03
2017-11-08T03:32:25.146Z,44.80
2017-11-08T03:34:53.406Z,47.90
2017-11-08T03:37:20.950Z,47.10
2017-11-08T03:39:48.442Z,45.83
2017-11-08T03:42:15.938Z,49.90
2017-11-08T03:44:44.226Z,45.70
2017-11-08T03:47:12.482Z,44.73
2017-11-08T03:49:40.010Z,47.13
2017-11-08T03:52:07.508Z,43.50
2017-11-08T03:54:35.047Z,50.10
2017-11-08T03:57:02.542Z,47.37
2017-11-08T03:59:30.074Z,48.73
2017-11-08T04:01:58.330Z,51.97
2017-11-08T04:04:25.851Z,53.37
2017-11-08T04:06:53.352Z,59.87
2017-11-08T04:09:20.902Z,51.13
2017-11-08T04:11:48.393Z,55.07
2017-11-08T04:14:15.923Z,53.40
2017-11-08T04:16:44.186Z,46.50
2017-11-08T04:19:11.731Z,44.40
2017-11-08T04:21:39.221Z,48.53
2017-11-08T04:24:06.714Z,43.73
2017-11-08T04:26:34.242Z,52.33
2017-11-08T04:29:01.747Z,54.57
2017-11-08T04:31:29.926Z,56.17
2017-11-08T04:33:57.430Z,47.40
2017-11-08T04:36:25.722Z,46.53
2017-11-08T04:38:53.973Z,43.50
2017-11-08T04:41:21.501Z,56.37
2017-11-08T04:43:48.998Z,51.40
2017-11-08T04:46:16.542Z,45.27
2017-11-08T04:48:44.038Z,45.27
2017-11-08T04:51:11.521Z,49.83
2017-11-08T04:53:39.045Z,56.93
2017-11-08T04:56:06.543Z,52.90
2017-11-08T04:58:34.074Z,54.80
2017-11-08T05:01:02.333Z,62.67
2017-11-08T05:03:29.955Z,46.93
2017-11-08T05:05:57.442Z,57.40
2017-11-08T05:08:24.973Z,57.33
2017-11-08T05:10:53.237Z,55.77
2017-11-08T05:13:20.765Z,52.00
2017-11-08T05:15:48.268Z,53.27
2017-11-08T05:18:15.789Z,55.97
2017-11-08T05:20:44.062Z,55.03
2017-11-08T05:23:11.603Z,50.80
2017-11-08T05:25:39.126Z,56.80
2017-11-08T05:28:07.381Z,50.10
2017-11-08T05:30:34.923Z,55.17
2017-11-08T05:33:02.422Z,50.83
2017-11-08T05:35:29.946Z,55.53
2017-11-08T05:37:57.443Z,51.13
2017-11-08T05:40:24.966Z,70.27
2017-11-08T05:42:53.221Z,55.73
2017-11-08T05:45:20.749Z,52.57
2017-11-08T05:47:48.241Z,60.07
2017-11-08T05:50:15.761Z,55.40
2017-11-08T05:52:44.022Z,54.33
2017-11-08T05:55:11.567Z,66.20
2017-11-08T05:57:39.066Z,63.37
2017-11-08T06:00:06.562Z,59.90
2017-11-08T06:02:34.859Z,56.20
2017-11-08T06:05:03.113Z,68.33
2017-11-08T06:07:30.637Z,58.47
2017-11-08T06:09:58.130Z,61.40
2017-11-08T06:12:25.657Z,66.50
2017-11-08T06:14:53.918Z,62.00
2017-11-08T06:17:21.442Z,66.00
2017-11-08T06:19:48.944Z,62.27
2017-11-08T06:22:16.471Z,67.37
2017-11-08T06:24:44.735Z,77.70
2017-11-08T06:27:12.287Z,73.23
2017-11-08T06:29:40.552Z,79.30
2017-11-08T06:32:08.046Z,83.50
2017-11-08T06:34:35.574Z,70.13
2017-11-08T06:37:03.073Z,80.00
2017-11-08T06:39:30.601Z,80.53
2017-11-08T06:41:58.101Z,81.63
2017-11-08T06:44:25.625Z,75.17
2017-11-08T06:46:53.123Z,81.13
2017-11-08T06:49:20.980Z,72.60
2017-11-08T06:51:48.479Z,74.93
2017-11-08T06:54:16.007Z,84.10
2017-11-08T06:56:43.497Z,77.00
2017-11-08T06:59:11.806Z,78.10
2017-11-08T07:01:40.066Z,71.20
2017-11-08T07:04:07.567Z,75.37
2017-11-08T07:06:36.801Z,71.73
2017-11-08T07:09:04.298Z,78.50
2017-11-08T07:11:31.828Z,80.03
2017-11-08T07:13:59.321Z,83.70
2017-11-08T07:16:26.846Z,72.97
2017-11-08T07:18:55.160Z,80.23
2017-11-08T07:21:22.694Z,88.73
2017-11-08T07:23:50.213Z,84.67
2017-11-08T07:26:17.759Z,86.43
2017-11-08T07:28:45.258Z,88.70
2017-11-08T07:31:12.755Z,93.43
2017-11-08T07:33:40.799Z,86.37
2017-11-08T07:36:08.296Z,91.10
2017-11-08T07:38:35.838Z,76.87
2017-11-08T07:41:03.341Z,99.23
2017-11-08T07:43:30.870Z,95.33
2017-11-08T07:45:59.134Z,77.47
2017-11-08T07:48:26.665Z,84.33
2017-11-08T07:50:54.182Z,79.17
2017-11-08T07:53:21.713Z,85.57
2017-11-08T07:55:54.755Z,89.07
2017-11-08T07:58:22.285Z,79.33
2017-11-08T08:00:50.551Z,80.23
2017-11-08T08:03:18.192Z,89.43
2017-11-08T08:05:45.701Z,79.33
2017-11-08T08:08:13.204Z,97.57
2017-11-08T08:10:40.754Z,85.10
2017-11-08T08:13:08.249Z,97.33
2017-11-08T08:15:35.746Z,75.03
2017-11-08T08:18:03.275Z,76.00
2017-11-08T08:20:30.806Z,80.10
2017-11-08T08:22:59.067Z,71.70
2017-11-08T08:25:26.613Z,85.70
2017-11-08T08:27:54.138Z,81.63
2017-11-08T08:30:22.439Z,85.00
2017-11-08T08:32:50.699Z,83.73
2017-11-08T08:35:18.250Z,83.10
2017-11-08T08:37:45.741Z,74.00
2017-11-08T08:40:13.238Z,77.33
2017-11-08T08:42:41.535Z,80.20
2017-11-08T08:45:09.046Z,83.63
2017-11-08T08:47:36.570Z,95.77
2017-11-08T08:50:04.066Z,86.63
2017-11-08T08:52:31.594Z,82.73
2017-11-08T08:54:59.091Z,72.30
2017-11-08T08:57:27.386Z,80.03
2017-11-08T08:59:54.883Z,93.67
2017-11-08T09:02:25.290Z,82.30
2017-11-08T09:04:53.554Z,74.60
2017-11-08T09:07:21.101Z,78.60
2017-11-08T09:09:48.589Z,77.73
2017-11-08T09:12:16.082Z,78.17
2017-11-08T09:14:44.378Z,87.53
2017-11-08T09:17:12.653Z,82.43
2017-11-08T09:19:40.182Z,70.03
2017-11-08T09:22:07.679Z,79.57
2017-11-08T09:24:35.228Z,82.90
2017-11-08T09:27:03.499Z,75.77
2017-11-08T09:32:35.054Z,73.70
2017-11-08T09:35:08.285Z,71.63
2017-11-08T09:37:36.549Z,71.27
2017-11-08T09:40:04.450Z,72.10
2017-11-08T09:42:35.638Z,63.23
2017-11-08T09:45:03.143Z,62.30
2017-11-08T09:47:30.674Z,72.33
2017-11-08T09:50:00.965Z,62.00
2017-11-08T09:52:28.497Z,65.77
2017-11-08T09:54:55.997Z,67.10
2017-11-08T09:57:25.496Z,72.57
2017-11-08T09:59:53.056Z,63.00
2017-11-08T10:02:20.533Z,59.53
2017-11-08T10:04:48.030Z,63.00
2017-11-08T10:07:15.600Z,61.30
2017-11-08T10:09:48.830Z,65.23
2017-11-08T10:12:16.362Z,56.57
2017-11-08T10:14:43.857Z,58.00
2017-11-08T10:17:12.169Z,64.93
2017-11-08T10:19:39.662Z,65.83
2017-11-08T10:22:10.021Z,61.43
2017-11-08T10:24:37.521Z,64.30
2017-11-08T10:27:05.050Z,60.27
2017-11-08T10:29:32.552Z,64.53
2017-11-08T10:32:00.122Z,57.80
2017-11-08T10:34:27.624Z,67.03
2017-11-08T10:36:55.165Z,59.30
2017-11-08T10:39:23.727Z,59.97
2017-11-08T10:41:51.228Z,67.13
2017-11-08T10:44:18.727Z,57.17
2017-11-08T10:46:46.225Z,66.13
2017-11-08T10:49:19.469Z,67.63
2017-11-08T10:51:47.755Z,66.83
2017-11-08T10:54:15.307Z,75.43
2017-11-08T10:56:42.817Z,70.87
2017-11-08T10:59:16.729Z,76.33
2017-11-08T11:01:44.278Z,74.80
2017-11-08T11:04:11.786Z,85.63
2017-11-08T11:06:39.327Z,87.83
2017-11-08T11:09:06.822Z,92.60
2017-11-08T11:11:34.384Z,77.27
2017-11-08T11:14:07.474Z,93.00
2017-11-08T11:16:35.011Z,82.03
2017-11-08T11:19:02.515Z,93.90
2017-11-08T11:21:30.078Z,94.73
2017-11-08T11:23:58.503Z,92.37
2017-11-08T11:26:32.522Z,100.30
2017-11-08T11:29:00.022Z,97.70
2017-11-08T11:31:28.284Z,98.90
2017-11-08T11:33:55.818Z,104.90
2017-11-08T11:36:23.319Z,100.87
2017-11-08T11:38:50.851Z,100.47
2017-11-08T11:41:25.087Z,92.97
2017-11-08T11:43:52.625Z,97.50
2017-11-08T11:46:20.899Z,92.40
2017-11-08T11:48:54.235Z,100.47
2017-11-08T11:51:25.585Z,95.53
2017-11-08T11:53:53.888Z,100.93
2017-11-08T11:56:22.154Z,99.97
2017-11-08T11:58:49.686Z,94.40
2017-11-08T12:01:17.191Z,103.20
2017-11-08T12:03:44.728Z,86.17
2017-11-08T12:06:12.218Z,77.73
2017-11-08T12:08:39.771Z,77.13
2017-11-08T12:11:07.271Z,92.17
2017-11-08T12:13:34.770Z,91.67
2017-11-08T12:16:03.071Z,85.57
2017-11-08T12:18:30.578Z,88.50
2017-11-08T12:20:58.143Z,90.73
2017-11-08T12:23:25.643Z,93.03
2017-11-08T12:25:53.176Z,93.53
2017-11-08T12:28:23.202Z,106.80
2017-11-08T12:30:50.713Z,101.13
2017-11-08T12:33:18.214Z,100.50
2017-11-08T12:35:47.431Z,113.27
2017-11-08T12:38:15.699Z,108.10
2017-11-08T12:40:43.234Z,110.47
2017-11-08T12:43:13.552Z,116.13
2017-11-08T12:45:41.115Z,127.53
2017-11-08T12:48:08.612Z,112.50
2017-11-08T12:50:36.118Z,126.67
2017-11-08T12:53:03.647Z,116.27
2017-11-08T12:55:31.151Z,117.27
2017-11-08T12:57:58.684Z,119.60
2017-11-08T13:00:26.183Z,122.50
2017-11-08T13:02:53.739Z,123.47
2017-11-08T13:05:21.239Z,123.43
2017-11-08T13:07:48.752Z,110.73
2017-11-08T13:10:17.050Z,120.10
2017-11-08T13:12:44.563Z,116.97
2017-11-08T13:15:12.094Z,119.77
2017-11-08T13:17:40.365Z,128.97
2017-11-08T13:20:07.895Z,124.73
2017-11-08T13:22:35.403Z,134.57
2017-11-08T13:25:02.944Z,126.43
2017-11-08T13:27:30.443Z,130.63
2017-11-08T13:29:57.978Z,137.17
2017-11-08T13:32:25.482Z,131.77
2017-11-08T13:34:53.011Z,131.03
2017-11-08T13:37:20.523Z,132.47
2017-11-08T13:39:50.913Z,136.30
2017-11-08T13:42:20.090Z,131.67
2017-11-08T13:44:48.358Z,130.87
2017-11-08T13:47:16.743Z,144.87
2017-11-08T13:49:44.242Z,143.53
2017-11-08T13:52:11.774Z,133.77
2017-11-08T13:54:39.274Z,143.93
2017-11-08T13:57:06.806Z,137.50
2017-11-08T13:59:34.321Z,145.73
2017-11-08T14:02:01.865Z,130.57
2017-11-08T14:04:29.363Z,143.80
2017-11-08T14:07:00.811Z,152.00
2017-11-08T14:09:28.303Z,142.83
2017-11-08T14:11:55.846Z,152.57
2017-11-08T14:14:23.347Z,144.67
2017-11-08T14:16:50.852Z,148.03
2017-11-08T14:19:18.386Z,151.47
2017-11-08T14:21:45.887Z,150.47
2017-11-08T14:24:13.426Z,149.10
2017-11-08T14:26:40.930Z,165.30
2017-11-08T14:29:08.458Z,153.60
2017-11-08T14:31:35.961Z,146.80
2017-11-08T14:34:04.282Z,161.57
2017-11-08T14:36:31.782Z,140.97
2017-11-08T14:38:59.338Z,146.53
2017-11-08T14:41:28.786Z,156.73
2017-11-08T14:43:56.286Z,142.07
2017-11-08T14:46:24.582Z,146.07
2017-11-08T14:48:52.841Z,151.10
2017-11-08T14:51:20.382Z,143.40
2017-11-08T14:53:50.697Z,143.40
2017-11-08T14:56:18.227Z,131.60
2017-11-08T14:58:55.644Z,156.00
2017-11-08T15:01:23.186Z,140.20
2017-11-08T15:03:50.708Z,144.53
2017-11-08T15:06:18.242Z,152.40
2017-11-08T15:08:45.743Z,155.00
2017-11-08T15:11:15.867Z,151.00
2017-11-08T15:13:44.138Z,152.80
2017-11-08T15:16:11.642Z,155.23
2017-11-08T15:18:39.182Z,142.00
2017-11-08T15:21:06.683Z,159.73
2017-11-08T15:23:34.223Z,161.73
2017-11-08T15:26:01.736Z,158.70
2017-11-08T15:28:29.271Z,155.57
2017-11-08T15:30:56.767Z,166.50
2017-11-08T15:33:25.118Z,156.17
2017-11-08T15:35:52.615Z,153.17
2017-11-08T15:38:20.169Z,162.90
2017-11-08T15:40:47.671Z,160.10
2017-11-08T15:43:18.767Z,170.00
2017-11-08T15:45:46.267Z,156.43
2017-11-08T15:48:13.820Z,167.63
2017-11-08T15:50:41.336Z,161.87
2017-11-08T15:53:09.603Z,167.60
2017-11-08T15:55:37.240Z,172.70
2017-11-08T15:58:04.754Z,168.17
2017-11-08T16:00:32.295Z,162.57
2017-11-08T16:02:59.799Z,165.00
2017-11-08T16:05:27.335Z,168.10
2017-11-08T16:07:54.836Z,181.43
2017-11-08T16:10:22.363Z,172.50
2017-11-08T16:12:50.778Z,164.57
2017-11-08T16:15:18.276Z,180.63
2017-11-08T16:17:52.686Z,164.53
2017-11-08T16:20:20.196Z,170.57
2017-11-08T16:22:48.505Z,171.10
2017-11-08T16:25:16.037Z,186.60
2017-11-08T16:27:43.582Z,183.23
2017-11-08T16:30:11.084Z,173.87
2017-11-08T16:32:38.732Z,198.27
2017-11-08T16:35:06.243Z,184.60
2017-11-08T16:37:34.516Z,195.93
2017-11-08T16:40:02.052Z,184.87
2017-11-08T16:42:29.550Z,207.67
2017-11-08T16:44:57.082Z,203.47
2017-11-08T16:47:24.583Z,195.10
2017-11-08T16:49:52.118Z,184.90
2017-11-08T16:52:19.619Z,191.80
2017-11-08T16:54:47.159Z,206.30
2017-11-08T16:57:14.666Z,191.67
2017-11-08T16:59:42.202Z,200.40
2017-11-08T17:02:09.711Z,203.10
2017-11-08T17:04:37.261Z,195.87
2017-11-08T17:07:04.766Z,217.30
2017-11-08T17:09:32.320Z,211.97
2017-11-08T17:11:59.819Z,210.00
2017-11-08T17:14:27.324Z,203.93
2017-11-08T17:16:55.621Z,222.47
2017-11-08T17:19:23.127Z,224.27
2017-11-08T17:21:50.661Z,222.30
2017-11-08T17:24:18.159Z,222.90
2017-11-08T17:26:45.694Z,228.47
2017-11-08T17:29:13.960Z,239.67
2017-11-08T17:31:41.491Z,231.83
2017-11-08T17:34:08.997Z,225.30
2017-11-08T17:36:36.544Z,222.50
2017-11-08T17:39:04.058Z,230.47
2017-11-08T17:41:31.598Z,250.23
2017-11-08T17:43:59.108Z,228.57
2017-11-08T17:46:26.660Z,236.50
2017-11-08T17:48:54.168Z,240.13
2017-11-08T17:51:21.678Z,251.07
2017-11-08T17:53:49.215Z,257.43
2017-11-08T17:56:16.731Z,229.70
2017-11-08T17:58:44.275Z,247.57
2017-11-08T18:01:11.784Z,264.20
2017-11-08T18:03:39.315Z,286.40
2017-11-08T18:06:06.815Z,262.37
2017-11-08T18:08:34.349Z,287.23
2017-11-08T18:11:01.864Z,283.80
2017-11-08T18:13:29.388Z,285.50
2017-11-08T18:15:56.923Z,297.13
2017-11-08T18:18:24.435Z,263.90
2017-11-08T18:20:51.973Z,294.43
2017-11-08T18:23:19.479Z,283.17
2017-11-08T18:25:47.015Z,284.23
2017-11-08T18:28:14.520Z,284.63
2017-11-08T18:30:42.065Z,302.57
2017-11-08T18:33:10.331Z,300.93
2017-11-08T18:35:37.827Z,300.23
2017-11-08T18:38:06.118Z,329.07
2017-11-08T18:40:34.393Z,318.67
2017-11-08T18:43:01.935Z,313.93
2017-11-08T18:45:29.433Z,361.10
2017-11-08T18:47:56.964Z,317.10
2017-11-08T18:50:25.231Z,339.87
2017-11-08T18:52:52.772Z,362.83
2017-11-08T18:55:20.285Z,333.93
2017-11-08T18:57:47.849Z,327.73
2017-11-08T19:00:15.347Z,324.27
2017-11-08T19:02:42.848Z,320.60
2017-11-08T19:05:10.394Z,320.23
2017-11-08T19:07:37.896Z,337.60
2017-11-08T19:10:05.445Z,364.57
2017-11-08T19:12:32.947Z,351.07
2017-11-08T19:15:01.246Z,346.30
2017-11-08T19:17:28.766Z,363.73
2017-11-08T19:19:56.305Z,396.43
2017-11-08T19:22:23.811Z,349.00
2017-11-08T19:24:51.359Z,337.60
2017-11-08T19:27:18.871Z,335.20
2017-11-08T19:29:46.575Z,340.80
2017-11-08T19:32:14.866Z,335.93
2017-11-08T19:34:43.141Z,317.97
2017-11-08T19:37:10.707Z,302.37
2017-11-08T19:39:38.207Z,352.20
2017-11-08T19:42:06.523Z,346.73
2017-11-08T19:44:34.032Z,362.80
2017-11-08T19:47:01.570Z,369.37
2017-11-08T19:49:29.088Z,351.60
2017-11-08T19:51:56.630Z,392.77
2017-11-08T19:54:24.130Z,338.63
2017-11-08T19:56:51.690Z,399.07
2017-11-08T19:59:19.186Z,372.97
2017-11-08T20:01:46.690Z,355.20
2017-11-08T20:04:14.227Z,369.27
2017-11-08T20:06:42.490Z,390.60
2017-11-08T20:09:10.041Z,355.93
2017-11-08T20:11:37.556Z,383.97
2017-11-08T20:14:05.110Z,367.70
2017-11-08T20:16:32.616Z,357.87
2017-11-08T20:19:00.563Z,361.07
2017-11-08T20:21:28.084Z,356.60
2017-11-08T20:23:55.654Z,334.77
2017-11-08T20:26:23.162Z,385.60
2017-11-08T20:28:50.666Z,412.57
2017-11-08T20:31:18.203Z,370.10
2017-11-08T20:33:45.712Z,377.37
2017-11-08T20:36:14.019Z,354.13
2017-11-08T20:38:42.287Z,356.50
2017-11-08T20:41:09.831Z,354.37
2017-11-08T20:43:37.338Z,337.67
2017-11-08T20:46:05.651Z,362.60
2017-11-08T20:48:33.163Z,373.23
2017-11-08T20:51:00.723Z,354.03
2017-11-08T20:53:28.226Z,326.00
2017-11-08T20:55:55.731Z,351.13
2017-11-08T20:58:23.275Z,372.93
2017-11-08T21:00:50.779Z,366.77
2017-11-08T21:03:19.249Z,373.67
2017-11-08T21:05:47.522Z,391.50
2017-11-08T21:08:15.063Z,392.03
2017-11-08T21:10:42.571Z,365.53
2017-11-08T21:13:10.127Z,368.17
2017-11-08T21:15:37.635Z,332.90
2017-11-08T21:18:05.160Z,357.60
2017-11-08T21:20:32.710Z,331.17
2017-11-08T21:23:00.234Z,325.63
2017-11-08T21:25:27.767Z,330.23
2017-11-08T21:27:55.308Z,333.33
2017-11-08T21:30:22.847Z,329.57
2017-11-08T21:32:50.350Z,313.13
2017-11-08T21:35:17.895Z,328.87
2017-11-08T21:37:45.401Z,308.57
2017-11-08T21:40:12.938Z,317.10
2017-11-08T21:42:40.442Z,336.63
2017-11-08T21:45:07.986Z,351.10
2017-11-08T21:47:36.256Z,346.63
2017-11-08T21:50:03.789Z,326.00
2017-11-08T21:52:31.328Z,303.63
2017-11-08T21:54:59.591Z,308.07
2017-11-08T21:57:27.130Z,338.77
2017-11-08T21:59:54.631Z,343.20
2017-11-08T22:02:22.182Z,319.30
2017-11-08T22:04:49.682Z,316.43
2017-11-08T22:07:17.192Z,274.30
2017-11-08T22:09:44.718Z,316.07
2017-11-08T22:12:12.210Z,323.53
2017-11-08T22:14:40.509Z,349.43
2017-11-08T22:17:08.774Z,324.93
2017-11-08T22:19:36.339Z,307.47
2017-11-08T22:22:03.835Z,338.97
2017-11-08T22:24:38.223Z,326.73
2017-11-08T22:27:05.723Z,289.87
2017-11-08T22:29:33.223Z,301.63
2017-11-08T22:32:01.518Z,309.93
2017-11-08T22:34:30.599Z,319.70
2017-11-08T22:36:58.134Z,301.67
2017-11-08T22:39:25.658Z,288.60
2017-11-08T22:41:53.219Z,291.73
2017-11-08T22:44:21.495Z,278.63
2017-11-08T22:46:49.023Z,311.33
2017-11-08T22:49:16.556Z,310.97
2017-11-08T22:51:44.124Z,310.10
2017-11-08T22:54:11.623Z,310.90
2017-11-08T22:56:39.171Z,287.73
2017-11-08T22:59:07.474Z,290.90
2017-11-08T23:01:34.978Z,287.67
2017-11-08T23:04:02.519Z,285.67
2017-11-08T23:06:30.786Z,264.07
2017-11-08T23:08:58.317Z,287.00
2017-11-08T23:11:25.814Z,283.43
2017-11-08T23:13:53.347Z,307.20
2017-11-08T23:16:22.663Z,292.93
2017-11-08T23:18:50.196Z,271.40
2017-11-08T23:21:18.462Z,285.93
2017-11-08T23:23:45.995Z,255.90
2017-11-08T23:26:13.508Z,268.33
2017-11-08T23:28:41.054Z,289.60
2017-11-08T23:31:08.546Z,311.53
2017-11-08T23:33:36.046Z,295.37
2017-11-08T23:36:03.585Z,280.10
2017-11-08T23:38:31.098Z,279.00
2017-11-08T23:40:58.636Z,276.53
2017-11-08T23:43:26.138Z,267.30
2017-11-08T23:45:53.691Z,268.10
2017-11-08T23:48:21.193Z,237.83
2017-11-08T23:50:49.606Z,255.30
2017-11-08T23:53:17.135Z,264.23
2017-11-08T23:55:45.399Z,244.13
2017-11-08T23:58:12.931Z,244.80
